Time;durP1;ratioP1;P1;durP2;ratioP2;P2;SDS_P1;SDS_P2;PMS_P1;PMS_P2;Temp;Humidity;BMP_temperature;BMP_pressure;BME280_temperature;BME280_humidity;BME280_pressure;Samples;Min_cycle;Max_cycle;Signal;HPM_P1;HPM_P2
2022/12/30 00:01:31;;;;;;;0.87;0.53;;;;;;;8.02;100.00;96689.84;5002881;28;20217;-58
2022/12/30 00:03:57;;;;;;;0.60;0.60;;;;;;;8.05;100.00;96699.28;5002484;28;20233;-57
2022/12/30 00:06:25;;;;;;;0.40;0.40;;;;;;;8.03;100.00;96694.16;5002529;28;20208;-57
2022/12/30 00:08:54;;;;;;;0.57;0.57;;;;;;;8.02;100.00;96698.56;5002800;28;20213;-58
2022/12/30 00:11:23;;;;;;;0.50;0.50;;;;;;;8.01;100.00;96701.31;5003798;28;20547;-58
2022/12/30 00:33:34;;;;;;;1.43;0.70;;;;;;;7.95;100.00;96718.47;5011094;28;20664;-58
2022/12/30 00:36:01;;;;;;;2.20;0.70;;;;;;;7.94;100.00;96716.78;5002019;28;20200;-58
2022/12/30 00:38:27;;;;;;;0.80;0.80;;;;;;;7.91;100.00;96717.03;5002403;28;20208;-57
2022/12/30 00:43:38;;;;;;;0.90;0.90;;;;;;;7.91;100.00;96727.56;4964964;28;1078723;-57
2022/12/30 00:46:05;;;;;;;0.70;0.70;;;;;;;7.95;100.00;96729.00;5002855;28;21599;-58
2022/12/30 00:56:45;;;;;;;1.10;0.50;;;;;;;8.01;100.00;96744.28;5024946;28;20199;-59
2022/12/30 00:59:12;;;;;;;0.53;0.53;;;;;;;7.99;100.00;96740.13;5025555;28;20201;-58
2022/12/30 01:01:39;;;;;;;1.23;0.73;;;;;;;7.96;100.00;96749.13;5006478;28;20208;-59
2022/12/30 01:04:07;;;;;;;1.07;0.63;;;;;;;7.96;100.00;96751.75;5012572;28;20228;-58
2022/12/30 01:06:33;;;;;;;0.47;0.47;;;;;;;7.97;100.00;96761.31;5014796;28;20205;-58
2022/12/30 01:09:00;;;;;;;0.67;0.63;;;;;;;8.00;100.00;96757.59;5005089;28;20213;-58
2022/12/30 01:11:26;;;;;;;0.60;0.60;;;;;;;7.98;100.00;96757.72;5008433;28;20207;-58
2022/12/30 01:13:53;;;;;;;0.87;0.40;;;;;;;7.96;100.00;96756.19;5007279;28;20216;-58
2022/12/30 01:16:19;;;;;;;0.93;0.50;;;;;;;7.96;100.00;96762.28;5004101;28;20208;-58
2022/12/30 01:18:45;;;;;;;0.30;0.30;;;;;;;7.97;100.00;96769.19;5003180;28;20213;-57
2022/12/30 01:21:13;;;;;;;1.17;0.40;;;;;;;7.93;100.00;96765.16;5002771;28;20216;-58
2022/12/30 01:23:40;;;;;;;1.33;0.40;;;;;;;7.90;100.00;96775.91;5003108;28;20239;-57
2022/12/30 01:26:07;;;;;;;0.30;0.30;;;;;;;7.86;100.00;96778.94;5003185;28;20209;-57
2022/12/30 01:28:35;;;;;;;0.40;0.40;;;;;;;7.84;100.00;96786.97;5003934;28;20196;-58
2022/12/30 01:31:04;;;;;;;0.40;0.40;;;;;;;7.84;100.00;96780.84;5003261;28;20220;-58
2022/12/30 01:33:31;;;;;;;0.27;0.27;;;;;;;7.87;100.00;96770.91;5004635;28;20211;-58
2022/12/30 01:35:57;;;;;;;0.20;0.20;;;;;;;7.82;100.00;96780.16;5005402;28;20223;-59
2022/12/30 01:38:25;;;;;;;0.93;0.50;;;;;;;7.85;100.00;96777.25;5004784;28;20704;-58
2022/12/30 01:40:52;;;;;;;0.50;0.40;;;;;;;7.83;100.00;96780.00;5005074;28;20202;-58
2022/12/30 01:43:18;;;;;;;0.40;0.40;;;;;;;7.83;100.00;96774.75;5004205;28;20244;-59
2022/12/30 01:45:46;;;;;;;0.20;0.20;;;;;;;7.80;100.00;96761.84;4996172;28;20214;-58
2022/12/30 01:48:19;;;;;;;0.30;0.27;;;;;;;7.75;100.00;96774.53;4996053;28;20201;-58
2022/12/30 01:50:49;;;;;;;0.33;0.20;;;;;;;7.75;100.00;96779.81;4993129;28;20212;-58
2022/12/30 01:53:18;;;;;;;1.20;0.50;;;;;;;7.72;100.00;96779.22;4992813;28;20213;-58
2022/12/30 01:55:49;;;;;;;0.93;0.43;;;;;;;7.73;100.00;96781.72;4992073;28;20215;-58
2022/12/30 01:58:18;;;;;;;0.20;0.20;;;;;;;7.67;100.00;96791.88;4992253;28;20193;-57
2022/12/30 02:00:45;;;;;;;0.50;0.50;;;;;;;7.64;100.00;96797.41;4992484;28;20205;-58
2022/12/30 02:03:12;;;;;;;1.23;0.40;;;;;;;7.55;100.00;96798.94;4992138;28;20205;-57
2022/12/30 02:05:41;;;;;;;2.00;0.40;;;;;;;7.52;100.00;96788.66;4992344;28;20560;-58
2022/12/30 02:08:10;;;;;;;0.30;0.30;;;;;;;7.51;100.00;96797.50;4992483;28;20209;-58
2022/12/30 02:10:39;;;;;;;1.50;0.50;;;;;;;7.50;100.00;96783.53;4992040;28;20201;-58
2022/12/30 02:13:06;;;;;;;0.40;0.40;;;;;;;7.49;100.00;96787.13;4992521;28;20213;-58
2022/12/30 02:15:37;;;;;;;0.50;0.30;;;;;;;7.48;100.00;96787.22;4992051;28;20206;-58
2022/12/30 02:18:08;;;;;;;0.43;0.43;;;;;;;7.45;100.00;96788.31;4992107;28;20197;-58
2022/12/30 02:21:05;;;;;;;0.23;0.20;;;;;;;7.39;100.00;96777.44;4991817;28;20664;-58
2022/12/30 02:24:01;;;;;;;0.47;0.37;;;;;;;7.34;100.00;96771.69;4991819;28;20216;-57
2022/12/30 02:26:52;;;;;;;0.30;0.30;;;;;;;7.36;100.00;96775.06;4991892;28;20205;-59
2022/12/30 02:29:45;;;;;;;0.30;0.30;;;;;;;7.34;100.00;96775.16;4992115;28;20209;-58
2022/12/30 02:32:15;;;;;;;1.20;0.37;;;;;;;7.40;100.00;96776.50;4989819;28;20237;-58
2022/12/30 02:34:46;;;;;;;0.33;0.30;;;;;;;7.41;100.00;96772.88;4991818;28;20220;-58
2022/12/30 02:37:15;;;;;;;0.17;0.17;;;;;;;7.43;100.00;96771.00;4991709;28;20197;-58
2022/12/30 02:39:45;;;;;;;0.30;0.30;;;;;;;7.43;100.00;96768.34;4991365;28;20216;-60
2022/12/30 02:45:06;;;;;;;0.40;0.30;;;;;;;7.39;100.00;96766.91;5003889;28;20372;-58
2022/12/30 02:47:39;;;;;;;0.50;0.30;;;;;;;7.44;100.00;96770.00;5004928;28;20208;-59
2022/12/30 02:52:54;;;;;;;0.20;0.20;;;;;;;7.55;100.00;96756.00;5004958;28;20339;-58
2022/12/30 02:55:21;;;;;;;0.20;0.20;;;;;;;7.60;100.00;96746.81;5006589;28;20192;-58
2022/12/30 02:57:47;;;;;;;0.00;0.00;;;;;;;7.58;100.00;96743.44;5007189;28;20200;-58
2022/12/30 03:06:24;;;;;;;0.07;0.07;;;;;;;7.55;100.00;96748.94;5001444;28;20215;-58
2022/12/30 03:08:56;;;;;;;0.17;0.17;;;;;;;7.53;100.00;96753.50;5000718;28;20197;-58
2022/12/30 03:11:22;;;;;;;0.10;0.10;;;;;;;7.50;100.00;96751.13;5005352;28;20201;-58
2022/12/30 03:13:54;;;;;;;0.10;0.10;;;;;;;7.49;100.00;96739.75;5005154;28;20555;-58
2022/12/30 03:16:25;;;;;;;0.10;0.10;;;;;;;7.51;100.00;96750.16;5005518;28;20200;-58
2022/12/30 03:18:54;;;;;;;0.53;0.13;;;;;;;7.50;100.00;96751.13;5005220;28;20211;-59
2022/12/30 03:21:22;;;;;;;0.03;0.03;;;;;;;7.50;100.00;96748.50;5005038;28;20213;-58
2022/12/30 03:29:23;;;;;;;0.10;0.10;;;;;;;7.53;100.00;96753.50;5006724;28;20239;-58
2022/12/30 03:31:50;;;;;;;0.00;0.00;;;;;;;7.54;100.00;96741.19;5007874;28;20300;-58
2022/12/30 03:34:18;;;;;;;0.90;0.20;;;;;;;7.47;100.00;96736.41;5006711;28;20256;-58
2022/12/30 03:36:47;;;;;;;0.20;0.20;;;;;;;7.46;100.00;96731.28;5004495;28;21442;-58
2022/12/30 03:39:17;;;;;;;0.10;0.10;;;;;;;7.44;100.00;96725.28;5004374;28;20205;-57
2022/12/30 03:41:44;;;;;;;0.00;0.00;;;;;;;7.37;100.00;96716.19;5004698;28;20231;-59
2022/12/30 03:44:11;;;;;;;0.00;0.00;;;;;;;7.38;100.00;96702.09;4998379;28;20233;-58
2022/12/30 03:46:41;;;;;;;0.33;0.10;;;;;;;7.39;100.00;96688.84;4995129;28;20201;-57
2022/12/30 03:49:08;;;;;;;0.00;0.00;;;;;;;7.46;100.00;96686.53;4993785;28;20209;-58
2022/12/30 03:51:36;;;;;;;0.00;0.00;;;;;;;7.39;100.00;96678.31;4994955;28;20220;-57
2022/12/30 03:54:02;;;;;;;1.17;0.10;;;;;;;7.38;100.00;96666.09;4994465;28;20543;-58
2022/12/30 03:56:29;;;;;;;0.00;0.00;;;;;;;7.32;100.00;96668.41;4995254;28;20224;-58
2022/12/30 03:58:55;;;;;;;0.17;0.17;;;;;;;7.30;100.00;96667.66;5009650;28;20224;-58
2022/12/30 04:01:22;;;;;;;0.00;0.00;;;;;;;7.31;100.00;96664.09;5017950;28;20201;-58
2022/12/30 04:03:48;;;;;;;0.00;0.00;;;;;;;7.27;100.00;96673.19;5014848;28;20272;-57
2022/12/30 04:06:15;;;;;;;0.10;0.10;;;;;;;7.20;100.00;96669.38;5012668;28;20229;-58
2022/12/30 04:08:43;;;;;;;0.07;0.07;;;;;;;7.18;100.00;96674.75;5010201;28;20213;-58
2022/12/30 04:11:09;;;;;;;0.07;0.07;;;;;;;7.16;100.00;96675.81;4994557;28;20209;-58
2022/12/30 04:13:36;;;;;;;0.10;0.10;;;;;;;7.07;100.00;96681.81;4994800;28;20213;-58
2022/12/30 04:16:02;;;;;;;0.30;0.20;;;;;;;6.99;100.00;96679.78;4994662;28;20201;-58
2022/12/30 04:18:29;;;;;;;0.00;0.00;;;;;;;6.97;100.00;96679.91;4993924;28;20228;-57
2022/12/30 04:20:55;;;;;;;0.10;0.10;;;;;;;6.93;100.00;96680.28;4994429;28;20538;-58
2022/12/30 04:23:22;;;;;;;0.30;0.30;;;;;;;6.89;100.00;96684.09;4994561;28;20547;-57
2022/12/30 04:25:50;;;;;;;0.10;0.10;;;;;;;6.87;100.00;96680.75;4993952;28;20225;-57
2022/12/30 04:28:16;;;;;;;0.13;0.13;;;;;;;6.83;100.00;96674.91;4994472;28;20210;-58
2022/12/30 04:30:43;;;;;;;0.10;0.10;;;;;;;6.78;100.00;96674.41;4994117;28;20561;-58
2022/12/30 04:33:09;;;;;;;0.20;0.20;;;;;;;6.84;100.00;96676.56;4994043;28;20224;-57
2022/12/30 04:35:36;;;;;;;0.20;0.20;;;;;;;6.82;100.00;96672.38;4994130;28;20194;-58
2022/12/30 04:38:02;;;;;;;0.10;0.10;;;;;;;6.75;100.00;96681.69;4994141;28;20248;-57
2022/12/30 04:40:29;;;;;;;0.10;0.10;;;;;;;6.66;100.00;96675.34;4993397;28;20209;-58
2022/12/30 04:42:56;;;;;;;0.23;0.23;;;;;;;6.55;100.00;96683.25;4994232;28;20657;-58
2022/12/30 04:45:23;;;;;;;2.20;0.20;;;;;;;6.52;100.00;96675.56;5003604;28;20226;-57
2022/12/30 04:47:49;;;;;;;0.10;0.10;;;;;;;6.40;100.00;96679.16;5003405;28;20208;-58
2022/12/30 04:50:16;;;;;;;0.10;0.10;;;;;;;6.24;100.00;96676.00;5002838;28;20204;-57
2022/12/30 04:52:42;;;;;;;0.00;0.00;;;;;;;6.15;100.00;96680.16;5003455;28;20197;-58
2022/12/30 04:55:09;;;;;;;0.20;0.20;;;;;;;6.02;100.00;96668.91;5003176;28;20225;-57
2022/12/30 04:57:36;;;;;;;0.10;0.10;;;;;;;5.93;100.00;96662.56;5003163;28;20209;-57
2022/12/30 05:00:05;;;;;;;0.20;0.10;;;;;;;5.82;100.00;96661.63;5003268;28;20213;-58
2022/12/30 05:02:32;;;;;;;0.10;0.10;;;;;;;5.79;100.00;96654.84;5002992;28;20271;-58
2022/12/30 05:04:58;;;;;;;0.03;0.03;;;;;;;5.66;100.00;96656.69;5002944;28;20229;-57
2022/12/30 05:07:25;;;;;;;0.10;0.10;;;;;;;5.56;100.00;96652.25;5003719;28;20205;-58
2022/12/30 05:09:51;;;;;;;1.70;0.20;;;;;;;5.56;100.00;96658.34;5002794;28;20209;-58
2022/12/30 05:12:18;;;;;;;0.20;0.10;;;;;;;5.55;100.00;96656.66;5002942;28;20719;-58
2022/12/30 05:14:44;;;;;;;0.33;0.33;;;;;;;5.47;100.00;96658.97;5002632;28;20760;-58
2022/12/30 05:17:12;;;;;;;0.30;0.30;;;;;;;5.47;100.00;96661.59;5002594;28;20201;-59
2022/12/30 05:19:39;;;;;;;2.93;0.10;;;;;;;5.43;100.00;96668.84;5003009;28;20212;-57
2022/12/30 05:22:05;;;;;;;0.43;0.30;;;;;;;5.36;100.00;96664.16;5003541;28;20220;-57
2022/12/30 05:27:30;;;;;;;0.27;0.10;;;;;;;5.32;100.00;96660.94;4933152;29;20255;-58
2022/12/30 05:29:56;;;;;;;0.23;0.23;;;;;;;5.25;100.00;96659.69;4932677;29;20218;-58
2022/12/30 05:32:24;;;;;;;0.20;0.20;;;;;;;5.20;100.00;96661.81;4962162;28;20540;-58
2022/12/30 05:34:51;;;;;;;1.60;0.30;;;;;;;5.07;100.00;96662.78;5002274;28;20197;-58
2022/12/30 05:37:17;;;;;;;0.20;0.20;;;;;;;5.13;100.00;96659.75;5002588;28;20208;-58
2022/12/30 05:39:44;;;;;;;1.90;0.37;;;;;;;5.11;100.00;96659.84;5002222;28;20204;-58
2022/12/30 05:42:10;;;;;;;0.97;0.23;;;;;;;4.99;100.00;96658.91;5002342;28;20197;-57
2022/12/30 05:44:37;;;;;;;0.47;0.47;;;;;;;5.00;100.00;96657.97;5002400;28;20233;-58
2022/12/30 05:47:04;;;;;;;0.20;0.20;;;;;;;5.05;100.00;96662.06;5002994;28;20208;-57
2022/12/30 05:49:31;;;;;;;0.63;0.30;;;;;;;5.03;100.00;96659.53;5002111;28;20204;-58
2022/12/30 05:51:58;;;;;;;0.37;0.30;;;;;;;5.00;100.00;96665.84;5002744;28;20210;-57
2022/12/30 05:54:24;;;;;;;0.10;0.10;;;;;;;4.96;100.00;96659.13;5001954;28;20212;-58
2022/12/30 05:56:51;;;;;;;0.53;0.30;;;;;;;4.98;100.00;96661.66;5002454;28;20212;-58
2022/12/30 05:59:17;;;;;;;0.43;0.30;;;;;;;4.90;100.00;96662.19;5002228;28;20634;-58
2022/12/30 06:01:44;;;;;;;0.20;0.20;;;;;;;4.88;100.00;96658.03;5005370;28;20214;-58
2022/12/30 06:04:10;;;;;;;1.90;0.40;;;;;;;4.81;100.00;96662.88;5008261;28;20312;-59
2022/12/30 06:06:38;;;;;;;0.37;0.27;;;;;;;4.75;100.00;96663.25;5007932;28;20233;-58
2022/12/30 06:09:05;;;;;;;0.33;0.30;;;;;;;4.72;100.00;96660.88;5017581;28;20212;-59
2022/12/30 06:11:32;;;;;;;0.23;0.23;;;;;;;4.75;100.00;96654.56;5017362;28;20222;-58
2022/12/30 06:13:58;;;;;;;0.20;0.20;;;;;;;4.71;100.00;96661.81;5017276;28;20208;-58
2022/12/30 06:16:24;;;;;;;0.37;0.37;;;;;;;4.75;100.00;96668.50;5018387;28;20204;-57
2022/12/30 06:18:52;;;;;;;0.53;0.40;;;;;;;4.76;100.00;96666.72;5016893;28;20205;-57
2022/12/30 06:21:18;;;;;;;0.47;0.30;;;;;;;4.78;100.00;96672.72;5002074;28;20197;-58
2022/12/30 06:23:46;;;;;;;0.47;0.47;;;;;;;4.77;100.00;96671.88;5002779;28;20209;-58
2022/12/30 06:26:12;;;;;;;0.20;0.20;;;;;;;4.73;100.00;96675.66;5001698;28;20217;-57
2022/12/30 06:28:39;;;;;;;2.27;0.60;;;;;;;4.72;100.00;96666.09;5003368;28;20645;-58
2022/12/30 06:31:05;;;;;;;2.57;0.70;;;;;;;4.68;100.00;96667.25;5009242;28;20197;-57
2022/12/30 06:33:32;;;;;;;0.40;0.40;;;;;;;4.65;100.00;96679.72;5004508;28;20211;-57
2022/12/30 06:35:58;;;;;;;0.67;0.60;;;;;;;4.68;100.00;96679.50;5004669;28;20197;-58
2022/12/30 06:38:25;;;;;;;0.67;0.67;;;;;;;4.64;100.00;96673.66;5008595;28;20216;-58
2022/12/30 06:40:53;;;;;;;0.93;0.60;;;;;;;4.60;100.00;96672.22;5016738;28;20212;-57
2022/12/30 06:43:19;;;;;;;0.70;0.50;;;;;;;4.60;100.00;96680.06;5018099;28;20236;-61
2022/12/30 06:45:46;;;;;;;1.23;1.10;;;;;;;4.64;100.00;96668.41;5022390;28;20231;-59
2022/12/30 06:48:12;;;;;;;1.37;0.50;;;;;;;4.68;100.00;96675.13;5007718;28;20197;-58
2022/12/30 06:50:39;;;;;;;1.30;0.70;;;;;;;4.64;100.00;96665.78;5002422;28;20215;-56
2022/12/30 06:53:06;;;;;;;1.33;0.70;;;;;;;4.60;100.00;96676.59;5001350;28;20669;-58
2022/12/30 06:55:34;;;;;;;1.13;0.70;;;;;;;4.64;100.00;96678.88;5001636;28;20209;-58
2022/12/30 06:58:02;;;;;;;0.70;0.70;;;;;;;4.64;100.00;96680.69;5001663;28;20204;-58
2022/12/30 07:00:28;;;;;;;1.30;0.70;;;;;;;4.72;100.00;96676.59;5001585;28;20529;-58
2022/12/30 07:02:55;;;;;;;0.70;0.70;;;;;;;4.68;100.00;96672.50;5002413;28;20200;-57
2022/12/30 07:05:21;;;;;;;0.47;0.47;;;;;;;4.66;100.00;96679.63;5001547;28;20547;-57
2022/12/30 07:07:48;;;;;;;0.47;0.47;;;;;;;4.66;100.00;96682.25;5001795;28;20208;-57
2022/12/30 07:10:14;;;;;;;0.43;0.43;;;;;;;4.70;100.00;96673.25;5001089;28;20208;-57
2022/12/30 07:12:41;;;;;;;0.50;0.50;;;;;;;4.68;100.00;96685.59;5001310;28;20641;-57
2022/12/30 07:15:10;;;;;;;1.20;0.60;;;;;;;4.61;100.00;96679.09;5001130;28;20219;-57
2022/12/30 07:17:36;;;;;;;1.00;0.90;;;;;;;4.62;100.00;96685.19;5000641;28;20624;-58
2022/12/30 07:20:03;;;;;;;1.17;0.40;;;;;;;4.56;100.00;96681.22;5001870;28;20656;-57
2022/12/30 07:22:30;;;;;;;1.40;0.30;;;;;;;4.59;100.00;96686.25;5001818;28;20205;-57
2022/12/30 07:24:56;;;;;;;0.40;0.40;;;;;;;4.59;100.00;96673.16;5002228;28;20220;-58
2022/12/30 07:27:24;;;;;;;0.57;0.57;;;;;;;4.66;100.00;96682.25;5002721;28;20201;-57
2022/12/30 07:29:51;;;;;;;2.10;1.03;;;;;;;4.61;100.00;96684.34;5003181;28;20244;-58
2022/12/30 07:32:18;;;;;;;0.50;0.50;;;;;;;4.66;100.00;96687.50;5003579;28;20218;-57
2022/12/30 07:34:45;;;;;;;1.30;0.80;;;;;;;4.69;100.00;96689.91;5002058;28;20201;-58
2022/12/30 07:37:14;;;;;;;1.37;0.80;;;;;;;4.72;100.00;96681.81;5003071;28;20216;-57
2022/12/30 07:39:40;;;;;;;0.77;0.73;;;;;;;4.77;100.00;96684.13;5002100;28;20208;-57
2022/12/30 07:42:07;;;;;;;0.50;0.50;;;;;;;4.73;100.00;96678.28;5001915;28;20621;-57
2022/12/30 07:44:33;;;;;;;0.50;0.50;;;;;;;4.82;100.00;96682.00;4993282;28;20237;-58
2022/12/30 07:47:00;;;;;;;0.53;0.53;;;;;;;4.84;100.00;96691.47;4991891;28;20221;-58
2022/12/30 07:49:28;;;;;;;0.53;0.50;;;;;;;4.88;100.00;96692.09;4992476;28;20213;-58
2022/12/30 07:51:55;;;;;;;1.67;0.57;;;;;;;4.94;100.00;96691.66;4991585;28;20209;-58
2022/12/30 07:54:22;;;;;;;1.63;0.53;;;;;;;4.93;100.00;96679.47;4991208;28;20209;-58
2022/12/30 07:56:49;;;;;;;1.07;0.50;;;;;;;4.96;100.00;96674.03;4993895;28;20220;-58
2022/12/30 07:59:15;;;;;;;0.60;0.60;;;;;;;4.96;100.00;96674.88;4995225;28;20228;-58
2022/12/30 08:01:42;;;;;;;1.93;0.67;;;;;;;4.93;100.00;96676.84;4994656;28;20220;-58
2022/12/30 08:04:08;;;;;;;0.73;0.67;;;;;;;4.87;100.00;96667.66;4994645;28;20217;-57
2022/12/30 08:06:36;;;;;;;1.13;0.50;;;;;;;4.95;100.00;96669.75;4994587;28;20232;-58
2022/12/30 08:09:04;;;;;;;1.63;0.57;;;;;;;4.95;100.00;96657.50;4993916;28;20771;-57
2022/12/30 08:11:31;;;;;;;0.67;0.47;;;;;;;4.98;100.00;96662.50;4994211;28;20240;-59
2022/12/30 08:13:57;;;;;;;0.47;0.47;;;;;;;5.08;100.00;96661.84;4994257;28;20200;-57
2022/12/30 08:16:23;;;;;;;0.53;0.50;;;;;;;5.09;100.00;96661.75;4994582;28;20205;-60
2022/12/30 08:18:50;;;;;;;0.47;0.47;;;;;;;5.00;100.00;96652.75;4994593;28;20213;-57
2022/12/30 08:21:17;;;;;;;0.90;0.40;;;;;;;5.03;100.00;96655.13;4994220;28;20216;-57
2022/12/30 08:23:46;;;;;;;2.13;0.40;;;;;;;5.07;100.00;96649.69;4994553;28;20626;-57
2022/12/30 08:26:15;;;;;;;0.70;0.70;;;;;;;5.06;100.00;96653.25;4994592;28;20220;-58
2022/12/30 08:28:43;;;;;;;1.10;0.90;;;;;;;5.13;100.00;96650.09;4997309;28;20216;-58
2022/12/30 08:31:10;;;;;;;0.97;0.80;;;;;;;5.17;100.00;96646.31;5000510;28;20217;-58
2022/12/30 08:33:37;;;;;;;1.07;0.80;;;;;;;5.17;100.00;96643.69;4998868;28;20201;-59
2022/12/30 08:36:06;;;;;;;1.57;0.73;;;;;;;5.15;100.00;96642.94;4994708;28;20209;-58
2022/12/30 08:38:34;;;;;;;0.77;0.40;;;;;;;5.17;100.00;96640.22;4993854;28;20209;-57
2022/12/30 08:41:06;;;;;;;0.40;0.40;;;;;;;5.26;100.00;96629.91;4993529;28;20220;-58
2022/12/30 08:43:33;;;;;;;0.97;0.50;;;;;;;5.40;100.00;96642.03;4997207;28;20236;-58
2022/12/30 08:45:59;;;;;;;0.50;0.50;;;;;;;5.48;100.00;96639.69;5002870;28;20676;-58
2022/12/30 08:48:26;;;;;;;0.77;0.77;;;;;;;5.58;100.00;96632.81;5002731;28;20223;-58
2022/12/30 08:50:53;;;;;;;0.67;0.67;;;;;;;5.78;100.00;96632.16;5003230;28;20204;-58
2022/12/30 08:53:20;;;;;;;0.50;0.50;;;;;;;5.98;100.00;96622.84;5003146;28;20205;-58
2022/12/30 08:55:46;;;;;;;0.70;0.70;;;;;;;6.21;100.00;96613.22;5003408;28;20604;-58
2022/12/30 08:58:14;;;;;;;1.10;1.10;;;;;;;6.42;100.00;96627.31;5003378;28;20205;-60
2022/12/30 09:00:41;;;;;;;1.00;1.00;;;;;;;6.64;100.00;96622.09;5004066;28;20200;-57
2022/12/30 09:03:09;;;;;;;1.50;0.80;;;;;;;6.91;100.00;96617.28;5003097;28;20641;-57
2022/12/30 09:05:36;;;;;;;1.17;1.17;;;;;;;7.24;100.00;96620.81;5002519;28;20223;-56
2022/12/30 09:08:02;;;;;;;0.90;0.90;;;;;;;7.57;100.00;96615.47;4999973;28;20212;-57
2022/12/30 09:10:28;;;;;;;1.37;1.13;;;;;;;7.86;100.00;96613.94;5001693;28;20205;-57
2022/12/30 09:12:55;;;;;;;1.60;0.70;;;;;;;8.47;100.00;96608.78;5002345;28;20212;-57
2022/12/30 09:15:23;;;;;;;0.90;0.90;;;;;;;8.94;100.00;96608.16;5002248;28;20540;-57
2022/12/30 09:17:49;;;;;;;5.60;4.50;;;;;;;9.50;100.00;96608.41;5003035;28;20204;-57
2022/12/30 09:20:16;;;;;;;13.40;9.47;;;;;;;9.90;100.00;96603.00;5003106;28;20213;-57
2022/12/30 09:22:42;;;;;;;4.47;4.07;;;;;;;10.34;98.69;96595.50;5002570;28;20204;-58
2022/12/30 09:25:09;;;;;;;1.40;1.30;;;;;;;11.17;93.10;96595.41;5001871;28;20532;-58
2022/12/30 09:27:35;;;;;;;0.87;0.70;;;;;;;11.56;90.21;96596.00;5003022;28;20221;-58
2022/12/30 09:30:02;;;;;;;0.80;0.80;;;;;;;12.19;86.29;96603.88;5002961;28;20223;-58
2022/12/30 09:32:30;;;;;;;0.70;0.70;;;;;;;12.25;83.50;96593.53;5003699;28;20205;-57
2022/12/30 09:34:57;;;;;;;0.85;0.85;;;;;;;12.13;83.74;96591.25;5004941;28;21307;-57
2022/12/30 09:37:24;;;;;;;0.80;0.80;;;;;;;11.73;84.61;96592.56;5006467;28;20212;-58
2022/12/30 09:39:50;;;;;;;0.88;0.73;;;;;;;11.97;85.01;96584.03;5005379;28;20249;-58
2022/12/30 09:45:14;;;;;;;0.90;0.90;;;;;;;11.81;84.29;96583.88;5003953;28;21297;-58
2022/12/30 09:47:44;;;;;;;0.70;0.70;;;;;;;12.13;81.41;96572.69;5004234;28;20228;-58
2022/12/30 09:50:20;;;;;;;0.70;0.70;;;;;;;11.80;86.00;96572.44;5004253;28;20654;-57
2022/12/30 09:52:52;;;;;;;1.20;1.10;;;;;;;11.93;87.13;96583.50;5005613;28;20205;-57
2022/12/30 09:55:21;;;;;;;0.80;0.80;;;;;;;11.66;89.26;96580.03;5003815;28;20209;-58
2022/12/30 09:57:50;;;;;;;0.73;0.73;;;;;;;11.92;87.90;96578.34;5004490;28;20600;-58
2022/12/30 10:00:18;;;;;;;0.77;0.77;;;;;;;11.82;88.67;96559.88;5002433;28;20208;-57
2022/12/30 10:02:56;;;;;;;0.60;0.60;;;;;;;11.77;87.99;96567.44;5002366;28;20213;-57
2022/12/30 10:05:33;;;;;;;1.27;1.07;;;;;;;11.65;87.71;96565.16;5003465;28;20696;-58
2022/12/30 10:08:04;;;;;;;3.17;2.90;;;;;;;11.47;91.71;96555.41;5003422;28;20228;-58
2022/12/30 10:10:36;;;;;;;3.10;2.83;;;;;;;11.41;90.28;96553.31;5002406;28;20469;-57
2022/12/30 10:13:07;;;;;;;2.33;2.07;;;;;;;11.49;95.25;96542.81;5002663;28;20334;-57
2022/12/30 10:15:47;;;;;;;4.93;4.43;;;;;;;11.55;92.37;96545.88;5019336;28;20256;-58
2022/12/30 10:18:24;;;;;;;2.40;2.20;;;;;;;11.70;89.54;96542.50;5024525;28;20203;-57
2022/12/30 10:20:57;;;;;;;1.53;1.43;;;;;;;11.37;93.29;96532.63;5023598;28;20207;-57
2022/12/30 10:23:33;;;;;;;1.00;0.80;;;;;;;11.04;93.98;96526.16;5022302;28;20203;-57
2022/12/30 10:26:07;;;;;;;1.57;1.13;;;;;;;11.06;94.73;96512.75;5022633;28;20197;-57
2022/12/30 10:28:37;;;;;;;0.90;0.90;;;;;;;10.98;94.74;96513.50;5021505;28;20227;-60
2022/12/30 10:31:07;;;;;;;1.90;0.90;;;;;;;10.94;95.43;96515.63;5002825;28;20216;-58
2022/12/30 10:33:36;;;;;;;1.00;1.00;;;;;;;11.09;93.76;96509.81;5002419;28;21411;-57
2022/12/30 10:36:11;;;;;;;3.93;2.63;;;;;;;10.99;98.08;96508.06;5002706;28;20204;-57
2022/12/30 10:38:39;;;;;;;1.10;1.03;;;;;;;10.97;94.06;96503.91;5003331;28;20494;-58
2022/12/30 10:41:15;;;;;;;1.30;1.30;;;;;;;10.78;93.67;96502.19;5002062;28;21345;-58
2022/12/30 10:43:49;;;;;;;1.10;1.10;;;;;;;10.67;92.04;96494.47;4999840;28;20599;-57
2022/12/30 10:46:28;;;;;;;8.40;7.50;;;;;;;10.78;94.36;96498.72;4994329;28;20232;-57
2022/12/30 10:49:20;;;;;;;1.70;1.60;;;;;;;10.82;90.19;96498.28;4996819;28;20215;-58
2022/12/30 10:51:47;;;;;;;0.97;0.97;;;;;;;10.70;90.47;96486.22;4998215;28;20197;-58
2022/12/30 10:54:13;;;;;;;1.40;1.37;;;;;;;10.60;94.90;96496.03;4997723;28;20209;-57
2022/12/30 10:56:40;;;;;;;1.00;1.00;;;;;;;10.42;99.66;96488.03;4999580;28;20209;-58
2022/12/30 10:59:11;;;;;;;1.30;1.30;;;;;;;10.43;98.91;96483.59;5000820;28;20260;-59
2022/12/30 11:01:38;;;;;;;6.30;5.70;;;;;;;10.38;97.55;96491.13;5000612;28;20258;-58
2022/12/30 11:04:05;;;;;;;1.07;1.07;;;;;;;10.33;96.59;96477.50;5008596;28;20216;-59
2022/12/30 11:06:34;;;;;;;1.43;1.33;;;;;;;10.16;100.00;96476.47;4997493;28;20233;-58
2022/12/30 11:09:17;;;;;;;0.93;0.93;;;;;;;10.09;96.76;96479.81;4992643;28;20221;-57
2022/12/30 11:14:44;;;;;;;1.07;1.00;;;;;;;9.78;100.00;96477.34;4992156;28;20212;-59
2022/12/30 11:17:21;;;;;;;1.20;1.10;;;;;;;9.75;100.00;96488.22;4992034;28;20197;-60
2022/12/30 11:19:50;;;;;;;1.30;1.20;;;;;;;9.75;100.00;96488.22;4992001;28;20201;-59
2022/12/30 11:22:18;;;;;;;1.87;1.40;;;;;;;9.81;100.00;96471.78;4992257;28;20220;-58
2022/12/30 11:24:46;;;;;;;1.10;1.07;;;;;;;9.80;100.00;96472.78;4991448;28;20220;-58
2022/12/30 11:27:13;;;;;;;1.23;1.23;;;;;;;9.74;100.00;96462.78;4991831;28;20233;-58
2022/12/30 11:29:39;;;;;;;1.80;1.70;;;;;;;9.65;100.00;96463.63;4991179;28;20533;-57
2022/12/30 11:32:10;;;;;;;1.77;1.67;;;;;;;9.66;100.00;96472.38;4994403;28;20625;-58
2022/12/30 11:34:39;;;;;;;1.53;1.43;;;;;;;9.66;100.00;96470.59;4994957;28;20682;-58
2022/12/30 11:37:31;;;;;;;1.57;1.47;;;;;;;9.66;100.00;96470.59;4995803;28;20742;-58
2022/12/30 11:39:58;;;;;;;1.53;1.43;;;;;;;9.71;100.00;96465.69;4994690;28;20201;-58
2022/12/30 11:42:30;;;;;;;1.60;1.50;;;;;;;9.75;100.00;96471.53;4995465;28;20213;-58
2022/12/30 11:45:18;;;;;;;2.77;1.73;;;;;;;9.76;100.00;96479.31;4994983;28;20240;-57
2022/12/30 11:47:45;;;;;;;2.30;2.13;;;;;;;9.74;100.00;96468.06;4995035;28;20232;-57
2022/12/30 11:50:16;;;;;;;3.20;2.20;;;;;;;9.76;100.00;96474.03;4995014;28;20640;-58
2022/12/30 11:52:49;;;;;;;1.80;1.70;;;;;;;9.74;100.00;96475.16;4994981;28;20878;-57
2022/12/30 11:55:20;;;;;;;1.80;1.70;;;;;;;9.66;100.00;96457.38;4994486;28;20237;-58
2022/12/30 11:57:48;;;;;;;2.10;2.00;;;;;;;9.74;100.00;96499.75;4995058;28;20201;-57
2022/12/30 12:00:32;;;;;;;2.00;1.87;;;;;;;9.55;100.00;96452.25;4994669;28;20209;-59
2022/12/30 12:03:01;;;;;;;2.33;1.80;;;;;;;9.72;100.00;96455.97;4994570;28;20201;-58
2022/12/30 12:05:30;;;;;;;1.90;1.80;;;;;;;9.68;100.00;96488.91;4995965;28;20209;-58
2022/12/30 12:08:01;;;;;;;2.40;2.20;;;;;;;9.66;100.00;96489.06;5004675;28;20233;-58
2022/12/30 12:10:32;;;;;;;2.40;2.20;;;;;;;9.61;100.00;96470.16;5006313;28;20201;-58
2022/12/30 12:13:01;;;;;;;4.00;1.87;;;;;;;9.65;100.00;96470.72;5006500;28;20202;-58
2022/12/30 12:15:31;;;;;;;2.27;2.07;;;;;;;9.68;100.00;96478.34;4994406;28;20741;-58
2022/12/30 12:17:59;;;;;;;2.63;2.30;;;;;;;9.69;100.00;96472.94;4994975;28;20205;-57
2022/12/30 12:20:32;;;;;;;2.83;2.63;;;;;;;9.64;100.00;96474.31;4994446;28;20231;-57
2022/12/30 12:23:06;;;;;;;4.23;3.00;;;;;;;9.61;100.00;96480.72;4994561;28;20633;-58
2022/12/30 12:25:35;;;;;;;3.00;2.70;;;;;;;9.53;100.00;96480.59;4993287;28;20209;-59
2022/12/30 12:28:02;;;;;;;2.47;2.27;;;;;;;9.49;100.00;96480.03;4994652;28;20229;-58
2022/12/30 12:30:40;;;;;;;2.80;2.60;;;;;;;9.44;100.00;96481.44;4994624;28;20216;-58
2022/12/30 12:33:10;;;;;;;1.90;1.80;;;;;;;9.50;100.00;96483.50;4996632;28;20197;-59
2022/12/30 12:35:44;;;;;;;2.07;1.97;;;;;;;9.47;100.00;96473.25;5003155;28;20208;-57
2022/12/30 12:38:24;;;;;;;2.23;2.13;;;;;;;9.43;100.00;96485.03;5013948;28;20273;-58